sensor_id;sensor_type;location;lat;lon;timestamp;pressure;altitude;pressure_sealevel;temperature;humidity
69971;BME280;57301;50.328;8.542;2023-01-27T00:00:35;98877.97;;;1.31;92.88
69971;BME280;57301;50.328;8.542;2023-01-27T00:03:02;98880.84;;;1.43;92.44
69971;BME280;57301;50.328;8.542;2023-01-27T00:05:28;98879.50;;;1.36;92.16
69971;BME280;57301;50.328;8.542;2023-01-27T00:07:55;98884.81;;;1.34;92.59
69971;BME280;57301;50.328;8.542;2023-01-27T00:10:24;98883.81;;;1.37;92.73
69971;BME280;57301;50.328;8.542;2023-01-27T00:12:50;98879.50;;;1.36;92.63
69971;BME280;57301;50.328;8.542;2023-01-27T00:15:35;98889.06;;;1.37;92.43
69971;BME280;57301;50.328;8.542;2023-01-27T00:18:02;98888.47;;;1.31;92.47
69971;BME280;57301;50.328;8.542;2023-01-27T00:20:29;98877.97;;;1.31;92.67
69971;BME280;57301;50.328;8.542;2023-01-27T00:23:14;98877.88;;;1.33;93.16
69971;BME280;57301;50.328;8.542;2023-01-27T00:26:02;98876.66;;;1.39;93.24
69971;BME280;57301;50.328;8.542;2023-01-27T00:28:33;98883.09;;;1.49;92.54
69971;BME280;57301;50.328;8.542;2023-01-27T00:30:59;98873.00;;;1.41;92.36
69971;BME280;57301;50.328;8.542;2023-01-27T00:33:26;98882.50;;;1.44;92.77
69971;BME280;57301;50.328;8.542;2023-01-27T00:36:03;98878.19;;;1.43;92.58
69971;BME280;57301;50.328;8.542;2023-01-27T00:38:32;98879.13;;;1.42;92.68
69971;BME280;57301;50.328;8.542;2023-01-27T00:40:59;98875.56;;;1.43;92.52
69971;BME280;57301;50.328;8.542;2023-01-27T00:43:52;98878.25;;;1.41;92.75
69971;BME280;57301;50.328;8.542;2023-01-27T00:46:20;98880.63;;;1.46;92.40
69971;BME280;57301;50.328;8.542;2023-01-27T00:48:48;98869.97;;;1.49;92.35
69971;BME280;57301;50.328;8.542;2023-01-27T00:51:15;98872.94;;;1.43;92.22
69971;BME280;57301;50.328;8.542;2023-01-27T00:53:43;98875.28;;;1.47;92.26
69971;BME280;57301;50.328;8.542;2023-01-27T00:56:11;98876.41;;;1.43;92.64
69971;BME280;57301;50.328;8.542;2023-01-27T00:58:37;98874.72;;;1.42;92.69
69971;BME280;57301;50.328;8.542;2023-01-27T01:01:06;98878.00;;;1.46;92.28
69971;BME280;57301;50.328;8.542;2023-01-27T01:03:34;98879.19;;;1.40;92.75
69971;BME280;57301;50.328;8.542;2023-01-27T01:06:04;98886.34;;;1.38;93.02
69971;BME280;57301;50.328;8.542;2023-01-27T01:08:32;98884.56;;;1.39;92.67
69971;BME280;57301;50.328;8.542;2023-01-27T01:10:59;98880.59;;;1.31;93.48
69971;BME280;57301;50.328;8.542;2023-01-27T01:13:26;98879.41;;;1.37;92.80
69971;BME280;57301;50.328;8.542;2023-01-27T01:15:54;98882.53;;;1.28;93.17
69971;BME280;57301;50.328;8.542;2023-01-27T01:18:20;98884.91;;;1.32;93.49
69971;BME280;57301;50.328;8.542;2023-01-27T01:20:47;98892.44;;;1.39;92.67
69971;BME280;57301;50.328;8.542;2023-01-27T01:23:14;98890.00;;;1.36;93.10
69971;BME280;57301;50.328;8.542;2023-01-27T01:25:41;98890.34;;;1.29;93.09
69971;BME280;57301;50.328;8.542;2023-01-27T01:28:08;98898.81;;;1.19;93.73
69971;BME280;57301;50.328;8.542;2023-01-27T01:30:35;98894.31;;;1.37;92.79
69971;BME280;57301;50.328;8.542;2023-01-27T01:33:02;98896.94;;;1.37;93.27
69971;BME280;57301;50.328;8.542;2023-01-27T01:35:29;98899.97;;;1.45;92.49
69971;BME280;57301;50.328;8.542;2023-01-27T01:37:56;98905.22;;;1.45;92.49
69971;BME280;57301;50.328;8.542;2023-01-27T01:40:22;98907.50;;;1.51;92.13
69971;BME280;57301;50.328;8.542;2023-01-27T01:48:17;98895.41;;;1.32;92.85
69971;BME280;57301;50.328;8.542;2023-01-27T01:53:53;98901.50;;;1.33;92.84
69971;BME280;57301;50.328;8.542;2023-01-27T01:56:45;98898.97;;;1.31;93.11
69971;BME280;57301;50.328;8.542;2023-01-27T01:59:24;98903.13;;;1.36;92.66
69971;BME280;57301;50.328;8.542;2023-01-27T02:01:54;98897.63;;;1.24;93.09
69971;BME280;57301;50.328;8.542;2023-01-27T02:04:24;98888.28;;;1.34;93.26
69971;BME280;57301;50.328;8.542;2023-01-27T02:07:02;98894.38;;;1.35;92.87
69971;BME280;57301;50.328;8.542;2023-01-27T02:09:30;98890.25;;;1.31;93.21
69971;BME280;57301;50.328;8.542;2023-01-27T02:11:57;98893.22;;;1.25;93.34
69971;BME280;57301;50.328;8.542;2023-01-27T02:14:24;98888.22;;;1.36;92.67
69971;BME280;57301;50.328;8.542;2023-01-27T02:16:50;98890.00;;;1.36;92.77
69971;BME280;57301;50.328;8.542;2023-01-27T02:19:26;98898.13;;;1.31;93.04
69971;BME280;57301;50.328;8.542;2023-01-27T02:21:55;98897.78;;;1.37;92.47
69971;BME280;57301;50.328;8.542;2023-01-27T02:24:30;98895.59;;;1.29;92.75
69971;BME280;57301;50.328;8.542;2023-01-27T02:26:58;98893.28;;;1.39;92.54
69971;BME280;57301;50.328;8.542;2023-01-27T02:29:25;98891.44;;;1.25;92.56
69971;BME280;57301;50.328;8.542;2023-01-27T02:31:51;98888.97;;;1.22;92.56
69971;BME280;57301;50.328;8.542;2023-01-27T02:34:27;98887.63;;;1.15;93.39
69971;BME280;57301;50.328;8.542;2023-01-27T02:36:58;98890.69;;;1.23;93.09
69971;BME280;57301;50.328;8.542;2023-01-27T02:39:31;98883.31;;;1.30;92.84
69971;BME280;57301;50.328;8.542;2023-01-27T02:42:00;98895.16;;;1.21;92.38
69971;BME280;57301;50.328;8.542;2023-01-27T02:44:29;98884.31;;;1.27;92.55
69971;BME280;57301;50.328;8.542;2023-01-27T02:46:55;98892.63;;;1.36;91.98
69971;BME280;57301;50.328;8.542;2023-01-27T02:49:22;98897.78;;;1.37;91.75
69971;BME280;57301;50.328;8.542;2023-01-27T02:51:52;98895.66;;;1.28;91.56
69971;BME280;57301;50.328;8.542;2023-01-27T02:54:18;98896.16;;;1.34;91.67
69971;BME280;57301;50.328;8.542;2023-01-27T02:56:45;98898.03;;;1.32;91.36
69971;BME280;57301;50.328;8.542;2023-01-27T02:59:11;98895.25;;;1.36;90.91
69971;BME280;57301;50.328;8.542;2023-01-27T03:01:38;98897.78;;;1.37;90.81
69971;BME280;57301;50.328;8.542;2023-01-27T03:04:04;98901.09;;;1.25;91.37
69971;BME280;57301;50.328;8.542;2023-01-27T03:06:31;98898.44;;;1.41;91.02
69971;BME280;57301;50.328;8.542;2023-01-27T03:08:57;98904.47;;;1.43;91.13
69971;BME280;57301;50.328;8.542;2023-01-27T03:11:24;98906.16;;;1.28;91.12
69971;BME280;57301;50.328;8.542;2023-01-27T03:14:09;98909.97;;;1.38;90.73
69971;BME280;57301;50.328;8.542;2023-01-27T03:16:36;98925.50;;;1.43;90.50
69971;BME280;57301;50.328;8.542;2023-01-27T03:19:21;98913.69;;;1.34;90.69
69971;BME280;57301;50.328;8.542;2023-01-27T03:21:47;98918.41;;;1.29;91.07
69971;BME280;57301;50.328;8.542;2023-01-27T03:24:18;98916.09;;;1.23;91.13
69971;BME280;57301;50.328;8.542;2023-01-27T03:26:45;98920.66;;;1.35;90.82
69971;BME280;57301;50.328;8.542;2023-01-27T03:29:11;98915.66;;;1.30;90.85
69971;BME280;57301;50.328;8.542;2023-01-27T03:31:56;98918.44;;;1.27;91.32
69971;BME280;57301;50.328;8.542;2023-01-27T03:34:23;98912.94;;;1.32;91.48
69971;BME280;57301;50.328;8.542;2023-01-27T03:36:49;98914.03;;;1.28;92.03
69971;BME280;57301;50.328;8.542;2023-01-27T03:39:35;98910.41;;;1.30;92.11
69971;BME280;57301;50.328;8.542;2023-01-27T03:42:20;98912.50;;;1.40;91.44
69971;BME280;57301;50.328;8.542;2023-01-27T03:45:05;98916.63;;;1.29;91.77
69971;BME280;57301;50.328;8.542;2023-01-27T03:47:50;98917.50;;;1.28;91.57
69971;BME280;57301;50.328;8.542;2023-01-27T03:50:17;98916.63;;;1.29;91.62
69971;BME280;57301;50.328;8.542;2023-01-27T03:53:03;98906.94;;;1.30;91.71
69971;BME280;57301;50.328;8.542;2023-01-27T03:55:31;98921.69;;;1.32;91.79
69971;BME280;57301;50.328;8.542;2023-01-27T03:57:58;98918.13;;;1.18;92.71
69971;BME280;57301;50.328;8.542;2023-01-27T04:00:50;98915.06;;;1.25;92.38
69971;BME280;57301;50.328;8.542;2023-01-27T04:03:18;98915.91;;;1.26;92.56
69971;BME280;57301;50.328;8.542;2023-01-27T04:06:09;98916.50;;;1.15;93.11
69971;BME280;57301;50.328;8.542;2023-01-27T04:08:54;98915.31;;;1.21;92.93
69971;BME280;57301;50.328;8.542;2023-01-27T04:11:25;98923.53;;;1.15;93.71
69971;BME280;57301;50.328;8.542;2023-01-27T04:14:12;98923.19;;;1.21;92.93
69971;BME280;57301;50.328;8.542;2023-01-27T04:16:39;98920.41;;;1.24;93.14
69971;BME280;57301;50.328;8.542;2023-01-27T04:19:07;98920.31;;;1.25;92.95
69971;BME280;57301;50.328;8.542;2023-01-27T04:21:34;98918.13;;;1.33;92.73
69971;BME280;57301;50.328;8.542;2023-01-27T04:24:01;98923.56;;;1.30;92.36
69971;BME280;57301;50.328;8.542;2023-01-27T04:26:29;98924.91;;;1.38;92.32
69971;BME280;57301;50.328;8.542;2023-01-27T04:29:02;98925.75;;;1.38;91.77
69971;BME280;57301;50.328;8.542;2023-01-27T04:31:30;98921.53;;;1.36;92.42
69971;BME280;57301;50.328;8.542;2023-01-27T04:33:58;98927.13;;;1.29;92.44
69971;BME280;57301;50.328;8.542;2023-01-27T04:36:24;98929.47;;;1.34;92.01
69971;BME280;57301;50.328;8.542;2023-01-27T04:38:50;98928.53;;;1.35;92.54
69971;BME280;57301;50.328;8.542;2023-01-27T04:41:17;98929.22;;;1.39;92.02
69971;BME280;57301;50.328;8.542;2023-01-27T04:43:43;98932.03;;;1.36;92.00
69971;BME280;57301;50.328;8.542;2023-01-27T04:46:10;98937.09;;;1.39;92.33
69971;BME280;57301;50.328;8.542;2023-01-27T04:48:36;98935.91;;;1.44;92.00
69971;BME280;57301;50.328;8.542;2023-01-27T04:51:03;98935.22;;;1.41;91.49
69971;BME280;57301;50.328;8.542;2023-01-27T04:53:29;98942.75;;;1.47;91.22
69971;BME280;57301;50.328;8.542;2023-01-27T04:56:04;98936.41;;;1.51;90.92
69971;BME280;57301;50.328;8.542;2023-01-27T04:58:32;98935.16;;;1.42;91.69
69971;BME280;57301;50.328;8.542;2023-01-27T05:00:58;98936.94;;;1.42;91.16
69971;BME280;57301;50.328;8.542;2023-01-27T05:03:25;98943.28;;;1.38;91.73
69971;BME280;57301;50.328;8.542;2023-01-27T05:05:51;98943.44;;;1.34;91.91
69971;BME280;57301;50.328;8.542;2023-01-27T05:08:19;98940.31;;;1.44;90.95
69971;BME280;57301;50.328;8.542;2023-01-27T05:10:45;98945.06;;;1.37;91.39
69971;BME280;57301;50.328;8.542;2023-01-27T05:13:12;98937.78;;;1.26;91.91
69971;BME280;57301;50.328;8.542;2023-01-27T05:15:39;98944.97;;;1.39;91.66
69971;BME280;57301;50.328;8.542;2023-01-27T05:18:05;98942.69;;;1.48;91.44
69971;BME280;57301;50.328;8.542;2023-01-27T05:20:32;98946.91;;;1.35;91.45
69971;BME280;57301;50.328;8.542;2023-01-27T05:22:58;98950.00;;;1.43;91.74
69971;BME280;57301;50.328;8.542;2023-01-27T05:25:43;98945.06;;;1.53;90.82
69971;BME280;57301;50.328;8.542;2023-01-27T05:28:10;98947.88;;;1.50;90.95
69971;BME280;57301;50.328;8.542;2023-01-27T05:30:38;98950.84;;;1.44;91.80
69971;BME280;57301;50.328;8.542;2023-01-27T05:33:04;98956.84;;;1.46;91.87
69971;BME280;57301;50.328;8.542;2023-01-27T05:35:32;98952.53;;;1.45;91.63
69971;BME280;57301;50.328;8.542;2023-01-27T05:37:59;98955.25;;;1.43;92.15
69971;BME280;57301;50.328;8.542;2023-01-27T05:40:26;98953.28;;;1.47;91.59
69971;BME280;57301;50.328;8.542;2023-01-27T05:42:53;98968.97;;;1.48;91.71
69971;BME280;57301;50.328;8.542;2023-01-27T05:45:19;98952.69;;;1.57;91.46
69971;BME280;57301;50.328;8.542;2023-01-27T05:47:49;98963.28;;;1.56;91.49
69971;BME280;57301;50.328;8.542;2023-01-27T05:50:17;98962.34;;;1.57;91.36
69971;BME280;57301;50.328;8.542;2023-01-27T05:52:44;98965.56;;;1.62;91.27
69971;BME280;57301;50.328;8.542;2023-01-27T05:55:11;98959.91;;;1.54;91.45
69971;BME280;57301;50.328;8.542;2023-01-27T05:57:38;98964.38;;;1.52;91.69
69971;BME280;57301;50.328;8.542;2023-01-27T06:00:05;98968.13;;;1.48;91.64
69971;BME280;57301;50.328;8.542;2023-01-27T06:02:31;98969.97;;;1.46;92.08
69971;BME280;57301;50.328;8.542;2023-01-27T06:04:58;98967.09;;;1.50;91.98
69971;BME280;57301;50.328;8.542;2023-01-27T06:07:24;98972.44;;;1.49;92.17
69971;BME280;57301;50.328;8.542;2023-01-27T06:09:51;98972.28;;;1.52;91.99
69971;BME280;57301;50.328;8.542;2023-01-27T06:12:17;98980.59;;;1.60;91.85
69971;BME280;57301;50.328;8.542;2023-01-27T06:14:43;98986.91;;;1.72;91.42
69971;BME280;57301;50.328;8.542;2023-01-27T06:17:10;98981.00;;;1.68;90.74
69971;BME280;57301;50.328;8.542;2023-01-27T06:19:36;98977.28;;;1.72;90.53
69971;BME280;57301;50.328;8.542;2023-01-27T06:22:03;98976.75;;;1.66;90.68
69971;BME280;57301;50.328;8.542;2023-01-27T06:24:29;98981.59;;;1.73;90.04
69971;BME280;57301;50.328;8.542;2023-01-27T06:26:56;98987.19;;;1.67;90.25
69971;BME280;57301;50.328;8.542;2023-01-27T06:29:22;98986.69;;;1.60;90.62
69971;BME280;57301;50.328;8.542;2023-01-27T06:31:49;98983.97;;;1.62;90.87
69971;BME280;57301;50.328;8.542;2023-01-27T06:34:15;98989.66;;;1.54;91.27
69971;BME280;57301;50.328;8.542;2023-01-27T06:36:42;98984.56;;;1.51;91.36
69971;BME280;57301;50.328;8.542;2023-01-27T06:39:08;98992.69;;;1.63;91.08
69971;BME280;57301;50.328;8.542;2023-01-27T06:41:35;98988.97;;;1.51;91.50
69971;BME280;57301;50.328;8.542;2023-01-27T06:44:01;98981.34;;;1.46;91.71
69971;BME280;57301;50.328;8.542;2023-01-27T06:46:28;98989.72;;;1.53;91.77
69971;BME280;57301;50.328;8.542;2023-01-27T06:48:54;98998.72;;;1.49;92.11
69971;BME280;57301;50.328;8.542;2023-01-27T06:51:21;98998.72;;;1.49;92.02
69971;BME280;57301;50.328;8.542;2023-01-27T06:53:47;98994.41;;;1.48;92.64
69971;BME280;57301;50.328;8.542;2023-01-27T06:56:14;98996.53;;;1.57;91.99
69971;BME280;57301;50.328;8.542;2023-01-27T06:58:42;99000.25;;;1.69;91.39
69971;BME280;57301;50.328;8.542;2023-01-27T07:01:09;99003.72;;;1.69;91.26
69971;BME280;57301;50.328;8.542;2023-01-27T07:03:36;99000.09;;;1.56;91.70
69971;BME280;57301;50.328;8.542;2023-01-27T07:06:03;99004.91;;;1.64;91.39
69971;BME280;57301;50.328;8.542;2023-01-27T07:08:30;99005.50;;;1.69;91.18
69971;BME280;57301;50.328;8.542;2023-01-27T07:10:56;99003.13;;;1.64;91.02
69971;BME280;57301;50.328;8.542;2023-01-27T07:13:23;99011.34;;;1.58;91.36
69971;BME280;57301;50.328;8.542;2023-01-27T07:15:54;99018.22;;;1.60;91.85
69971;BME280;57301;50.328;8.542;2023-01-27T07:18:22;99015.31;;;1.65;91.56
69971;BME280;57301;50.328;8.542;2023-01-27T07:20:48;99016.63;;;1.74;91.10
69971;BME280;57301;50.328;8.542;2023-01-27T07:23:15;99012.34;;;1.71;90.60
69971;BME280;57301;50.328;8.542;2023-01-27T07:25:41;99016.09;;;1.67;90.91
69971;BME280;57301;50.328;8.542;2023-01-27T07:28:10;99017.91;;;1.67;91.40
69971;BME280;57301;50.328;8.542;2023-01-27T07:30:36;99027.22;;;1.72;91.22
69971;BME280;57301;50.328;8.542;2023-01-27T07:33:06;99021.03;;;1.73;91.05
69971;BME280;57301;50.328;8.542;2023-01-27T07:35:35;99023.81;;;1.70;91.31
69971;BME280;57301;50.328;8.542;2023-01-27T07:38:02;99028.31;;;1.68;91.40
69971;BME280;57301;50.328;8.542;2023-01-27T07:40:28;99020.44;;;1.68;91.69
69971;BME280;57301;50.328;8.542;2023-01-27T07:42:58;99031.19;;;1.79;90.90
69971;BME280;57301;50.328;8.542;2023-01-27T07:45:26;99029.56;;;1.93;90.41
69971;BME280;57301;50.328;8.542;2023-01-27T07:47:59;99031.09;;;1.81;90.29
69971;BME280;57301;50.328;8.542;2023-01-27T07:50:25;99030.25;;;1.80;91.00
69971;BME280;57301;50.328;8.542;2023-01-27T07:52:52;99029.31;;;1.81;90.56
69971;BME280;57301;50.328;8.542;2023-01-27T07:55:18;99034.69;;;1.80;91.00
69971;BME280;57301;50.328;8.542;2023-01-27T07:57:45;99040.09;;;1.93;90.21
69971;BME280;57301;50.328;8.542;2023-01-27T08:00:12;99030.56;;;1.90;90.44
69971;BME280;57301;50.328;8.542;2023-01-27T08:02:53;99035.59;;;1.95;90.39
69971;BME280;57301;50.328;8.542;2023-01-27T08:05:20;99042.38;;;1.99;90.22
69971;BME280;57301;50.328;8.542;2023-01-27T08:07:49;99054.00;;;2.10;89.98
69971;BME280;57301;50.328;8.542;2023-01-27T08:10:16;99045.09;;;1.97;89.67
69971;BME280;57301;50.328;8.542;2023-01-27T08:12:44;99050.44;;;2.11;89.42
69971;BME280;57301;50.328;8.542;2023-01-27T08:15:11;99056.44;;;2.13;89.01
69971;BME280;57301;50.328;8.542;2023-01-27T08:17:37;99054.75;;;2.12;89.02
69971;BME280;57301;50.328;8.542;2023-01-27T08:20:04;99062.03;;;2.07;89.87
69971;BME280;57301;50.328;8.542;2023-01-27T08:22:31;99067.81;;;2.14;89.26
69971;BME280;57301;50.328;8.542;2023-01-27T08:24:58;99072.16;;;2.15;88.95
69971;BME280;57301;50.328;8.542;2023-01-27T08:27:24;99066.81;;;2.17;88.82
69971;BME280;57301;50.328;8.542;2023-01-27T08:29:52;99068.75;;;2.13;88.63
69971;BME280;57301;50.328;8.542;2023-01-27T08:32:18;99064.75;;;2.22;88.78
69971;BME280;57301;50.328;8.542;2023-01-27T08:34:45;99071.03;;;2.19;88.40
69971;BME280;57301;50.328;8.542;2023-01-27T08:37:11;99071.72;;;2.07;88.95
69971;BME280;57301;50.328;8.542;2023-01-27T08:39:38;99079.94;;;2.17;88.76
69971;BME280;57301;50.328;8.542;2023-01-27T08:42:04;99086.16;;;2.15;88.18
69971;BME280;57301;50.328;8.542;2023-01-27T08:44:31;99077.16;;;2.04;89.06
69971;BME280;57301;50.328;8.542;2023-01-27T08:46:58;99080.03;;;1.99;89.43
69971;BME280;57301;50.328;8.542;2023-01-27T08:49:24;99089.13;;;2.09;89.56
69971;BME280;57301;50.328;8.542;2023-01-27T08:51:51;99089.78;;;2.13;88.77
69971;BME280;57301;50.328;8.542;2023-01-27T08:54:17;99087.59;;;2.21;88.55
69971;BME280;57301;50.328;8.542;2023-01-27T08:56:44;99103.38;;;2.21;88.87
69971;BME280;57301;50.328;8.542;2023-01-27T08:59:10;99097.47;;;2.32;88.04
69971;BME280;57301;50.328;8.542;2023-01-27T09:01:37;99096.78;;;2.44;87.43
69971;BME280;57301;50.328;8.542;2023-01-27T09:04:04;99096.88;;;2.42;87.84
69971;BME280;57301;50.328;8.542;2023-01-27T09:06:30;99103.00;;;2.43;88.08
69971;BME280;57301;50.328;8.542;2023-01-27T09:08:57;99097.25;;;2.21;88.73
69971;BME280;57301;50.328;8.542;2023-01-27T09:11:40;99102.50;;;2.21;88.73
69971;BME280;57301;50.328;8.542;2023-01-27T09:14:08;99110.06;;;2.27;88.12
69971;BME280;57301;50.328;8.542;2023-01-27T09:16:35;99112.63;;;2.28;88.98
69971;BME280;57301;50.328;8.542;2023-01-27T09:19:02;99122.69;;;2.36;88.15
69971;BME280;57301;50.328;8.542;2023-01-27T09:21:30;99112.63;;;2.28;89.03
69971;BME280;57301;50.328;8.542;2023-01-27T09:23:57;99119.13;;;2.37;88.28
69971;BME280;57301;50.328;8.542;2023-01-27T09:26:23;99121.09;;;2.33;89.02
69971;BME280;57301;50.328;8.542;2023-01-27T09:28:49;99121.06;;;2.49;88.56
69971;BME280;57301;50.328;8.542;2023-01-27T09:31:16;99119.03;;;2.38;88.55
69971;BME280;57301;50.328;8.542;2023-01-27T09:33:43;99125.31;;;2.52;88.58
69971;BME280;57301;50.328;8.542;2023-01-27T09:36:12;99119.63;;;2.59;88.05
69971;BME280;57301;50.328;8.542;2023-01-27T09:38:48;99130.59;;;2.52;88.16
69971;BME280;57301;50.328;8.542;2023-01-27T09:52:45;99123.59;;;2.66;88.09
69971;BME280;57301;50.328;8.542;2023-01-27T09:55:44;99124.69;;;2.92;86.33
69971;BME280;57301;50.328;8.542;2023-01-27T09:58:48;99122.19;;;2.75;87.06
69971;BME280;57301;50.328;8.542;2023-01-27T10:10:02;99106.88;;;3.26;84.23
69971;BME280;57301;50.328;8.542;2023-01-27T10:15:33;99103.78;;;3.19;84.88
69971;BME280;57301;50.328;8.542;2023-01-27T10:21:32;99113.78;;;2.99;86.09
69971;BME280;57301;50.328;8.542;2023-01-27T10:27:26;99108.88;;;2.92;85.16
69971;BME280;57301;50.328;8.542;2023-01-27T10:35:23;99112.06;;;2.83;85.94
69971;BME280;57301;50.328;8.542;2023-01-27T10:37:51;99108.84;;;2.78;85.93
69971;BME280;57301;50.328;8.542;2023-01-27T10:40:41;99120.00;;;2.97;86.34
69971;BME280;57301;50.328;8.542;2023-01-27T10:43:30;99120.38;;;3.06;84.79
69971;BME280;57301;50.328;8.542;2023-01-27T10:46:24;99121.22;;;3.06;85.07
69971;BME280;57301;50.328;8.542;2023-01-27T10:49:02;99127.06;;;2.97;85.40
69971;BME280;57301;50.328;8.542;2023-01-27T10:51:38;99125.38;;;2.96;85.67
69971;BME280;57301;50.328;8.542;2023-01-27T10:57:27;99122.00;;;3.08;85.55
69971;BME280;57301;50.328;8.542;2023-01-27T11:02:57;99129.47;;;3.30;84.47
69971;BME280;57301;50.328;8.542;2023-01-27T11:05:58;99131.56;;;3.54;83.99
69971;BME280;57301;50.328;8.542;2023-01-27T11:08:30;99126.19;;;3.69;81.79
69971;BME280;57301;50.328;8.542;2023-01-27T11:11:02;99131.38;;;3.71;82.10
69971;BME280;57301;50.328;8.542;2023-01-27T11:16:49;99123.75;;;3.81;82.56
69971;BME280;57301;50.328;8.542;2023-01-27T11:20:07;99122.75;;;3.96;81.81
69971;BME280;57301;50.328;8.542;2023-01-27T11:22:17;99127.31;;;3.94;81.18
69971;BME280;57301;50.328;8.542;2023-01-27T11:24:46;99127.59;;;3.89;80.95
69971;BME280;57301;50.328;8.542;2023-01-27T11:27:26;99133.34;;;3.67;80.99
69971;BME280;57301;50.328;8.542;2023-01-27T11:30:01;99127.41;;;3.64;80.76
69971;BME280;57301;50.328;8.542;2023-01-27T11:35:34;99132.88;;;3.46;81.87
69971;BME280;57301;50.328;8.542;2023-01-27T11:38:00;99125.41;;;3.24;82.35
69971;BME280;57301;50.328;8.542;2023-01-27T11:40:41;99126.66;;;3.47;82.41
69971;BME280;57301;50.328;8.542;2023-01-27T11:43:15;99121.38;;;3.47;81.71
69971;BME280;57301;50.328;8.542;2023-01-27T11:45:43;99111.00;;;3.30;81.77
69971;BME280;57301;50.328;8.542;2023-01-27T11:48:14;99113.56;;;3.32;82.49
69971;BME280;57301;50.328;8.542;2023-01-27T11:50:42;99113.75;;;3.43;81.71
69971;BME280;57301;50.328;8.542;2023-01-27T11:55:39;99104.25;;;3.55;81.13
69971;BME280;57301;50.328;8.542;2023-01-27T12:00:47;99099.91;;;3.39;81.71
69971;BME280;57301;50.328;8.542;2023-01-27T12:03:51;99106.03;;;3.40;81.00
69971;BME280;57301;50.328;8.542;2023-01-27T12:06:33;99101.25;;;3.32;81.28
69971;BME280;57301;50.328;8.542;2023-01-27T12:09:01;99098.00;;;3.56;80.99
69971;BME280;57301;50.328;8.542;2023-01-27T12:11:29;99104.16;;;3.13;82.80
69971;BME280;57301;50.328;8.542;2023-01-27T12:13:59;99093.22;;;3.34;82.13
69971;BME280;57301;50.328;8.542;2023-01-27T12:16:45;99096.53;;;3.52;81.74
69971;BME280;57301;50.328;8.542;2023-01-27T12:19:26;99086.91;;;3.65;80.50
69971;BME280;57301;50.328;8.542;2023-01-27T12:21:57;99088.41;;;3.55;80.58
69971;BME280;57301;50.328;8.542;2023-01-27T12:24:34;99085.22;;;3.64;79.05
69971;BME280;57301;50.328;8.542;2023-01-27T12:27:03;99086.25;;;3.47;80.54
69971;BME280;57301;50.328;8.542;2023-01-27T12:29:40;99083.31;;;3.66;80.61
69971;BME280;57301;50.328;8.542;2023-01-27T12:32:30;99070.16;;;4.07;77.20
69971;BME280;57301;50.328;8.542;2023-01-27T12:35:01;99078.19;;;4.32;77.52
69971;BME280;57301;50.328;8.542;2023-01-27T12:37:31;99080.78;;;4.20;76.86
69971;BME280;57301;50.328;8.542;2023-01-27T12:40:00;99075.72;;;4.29;76.21
69971;BME280;57301;50.328;8.542;2023-01-27T12:45:29;99077.81;;;3.97;78.57
69971;BME280;57301;50.328;8.542;2023-01-27T12:50:36;99072.75;;;3.80;79.70
69971;BME280;57301;50.328;8.542;2023-01-27T12:53:16;99064.91;;;3.93;79.34
69971;BME280;57301;50.328;8.542;2023-01-27T12:56:00;99067.84;;;3.88;79.19
69971;BME280;57301;50.328;8.542;2023-01-27T13:01:26;99066.63;;;3.94;79.38
69971;BME280;57301;50.328;8.542;2023-01-27T13:04:16;99070.09;;;3.80;80.75
69971;BME280;57301;50.328;8.542;2023-01-27T13:06:46;99065.22;;;3.74;80.96
69971;BME280;57301;50.328;8.542;2023-01-27T13:09:31;99067.13;;;3.72;80.57
69971;BME280;57301;50.328;8.542;2023-01-27T13:12:15;99066.94;;;3.75;81.69
69971;BME280;57301;50.328;8.542;2023-01-27T13:14:49;99071.16;;;3.77;81.99
69971;BME280;57301;50.328;8.542;2023-01-27T13:17:26;99078.75;;;3.96;81.52
69971;BME280;57301;50.328;8.542;2023-01-27T13:19:53;99076.41;;;3.92;80.90
69971;BME280;57301;50.328;8.542;2023-01-27T13:22:23;99086.50;;;3.85;80.54
69971;BME280;57301;50.328;8.542;2023-01-27T13:24:56;99082.59;;;3.64;82.26
69971;BME280;57301;50.328;8.542;2023-01-27T13:27:36;99084.38;;;3.63;81.93
69971;BME280;57301;50.328;8.542;2023-01-27T13:32:39;99085.50;;;3.31;82.52
69971;BME280;57301;50.328;8.542;2023-01-27T13:35:20;99087.75;;;3.37;82.93
69971;BME280;57301;50.328;8.542;2023-01-27T13:38:14;99103.94;;;3.31;83.28
69971;BME280;57301;50.328;8.542;2023-01-27T13:40:44;99106.78;;;3.42;82.29
69971;BME280;57301;50.328;8.542;2023-01-27T13:45:57;99099.53;;;3.45;82.88
69971;BME280;57301;50.328;8.542;2023-01-27T13:48:37;99105.00;;;3.57;81.34
69971;BME280;57301;50.328;8.542;2023-01-27T13:51:16;99114.31;;;3.48;82.32
69971;BME280;57301;50.328;8.542;2023-01-27T13:53:43;99115.25;;;3.47;81.98
69971;BME280;57301;50.328;8.542;2023-01-27T14:06:54;99118.75;;;3.47;81.91
69971;BME280;57301;50.328;8.542;2023-01-27T14:17:39;99114.22;;;3.49;81.81
69971;BME280;57301;50.328;8.542;2023-01-27T14:20:14;99119.50;;;3.64;79.81
69971;BME280;57301;50.328;8.542;2023-01-27T14:22:58;99116.28;;;3.73;79.82
69971;BME280;57301;50.328;8.542;2023-01-27T14:25:43;99116.78;;;3.65;80.18
69971;BME280;57301;50.328;8.542;2023-01-27T14:31:16;99122.88;;;3.66;80.39
69971;BME280;57301;50.328;8.542;2023-01-27T14:36:40;99138.25;;;3.59;80.72
69971;BME280;57301;50.328;8.542;2023-01-27T14:41:58;99139.28;;;3.71;79.06
69971;BME280;57301;50.328;8.542;2023-01-27T14:44:34;99141.94;;;3.57;80.69
69971;BME280;57301;50.328;8.542;2023-01-27T14:50:20;99142.41;;;3.63;79.09
69971;BME280;57301;50.328;8.542;2023-01-27T14:52:51;99147.56;;;3.50;80.31
69971;BME280;57301;50.328;8.542;2023-01-27T14:58:22;99150.69;;;3.57;80.25
69971;BME280;57301;50.328;8.542;2023-01-27T15:06:28;99160.19;;;3.45;80.58
69971;BME280;57301;50.328;8.542;2023-01-27T15:09:05;99163.94;;;3.56;79.90
69971;BME280;57301;50.328;8.542;2023-01-27T15:11:55;99165.44;;;3.45;79.63
69971;BME280;57301;50.328;8.542;2023-01-27T15:14:52;99167.50;;;3.40;81.20
69971;BME280;57301;50.328;8.542;2023-01-27T15:17:39;99159.50;;;3.42;81.45
69971;BME280;57301;50.328;8.542;2023-01-27T15:26:08;99160.19;;;3.45;81.16
69971;BME280;57301;50.328;8.542;2023-01-27T15:28:39;99168.63;;;3.36;82.05
69971;BME280;57301;50.328;8.542;2023-01-27T15:44:29;99175.53;;;3.53;80.93